createdAt,value
2018-07-20T00:00:00.171Z,26.2
2018-07-20T00:00:50.189Z,26.2
2018-07-20T00:01:41.094Z,26.2
2018-07-20T00:02:30.897Z,26.2
2018-07-20T00:03:20.933Z,26.3
2018-07-20T00:04:10.536Z,26.2
2018-07-20T00:05:01.328Z,26.2
2018-07-20T00:05:51.084Z,26.2
2018-07-20T00:06:40.984Z,26.2
2018-07-20T00:07:31.504Z,26.2
2018-07-20T00:08:20.591Z,26.2
2018-07-20T00:09:10.941Z,26.2
2018-07-20T00:10:01.448Z,26.3
2018-07-20T00:10:50.528Z,26.3
2018-07-20T00:11:41.335Z,26.2
2018-07-20T00:12:31.427Z,26.2
2018-07-20T00:13:21.213Z,26.2
2018-07-20T00:14:11.073Z,26.2
2018-07-20T00:15:00.865Z,26.2
2018-07-20T00:15:50.330Z,26.2
2018-07-20T00:16:41.264Z,26.3
2018-07-20T00:17:30.477Z,26.2
2018-07-20T00:18:21.388Z,26.2
2018-07-20T00:19:10.886Z,26.2
2018-07-20T00:20:01.932Z,26.2
2018-07-20T00:20:51.864Z,26.2
2018-07-20T00:21:41.111Z,26.2
2018-07-20T00:22:32.432Z,26.2
2018-07-20T00:23:21.974Z,26.2
2018-07-20T00:24:11.199Z,26.2
2018-07-20T00:25:01.879Z,26.2
2018-07-20T00:25:52.436Z,26.2
2018-07-20T00:26:42.527Z,26.2
2018-07-20T00:27:32.334Z,26.2
2018-07-20T00:28:22.380Z,26.2
2018-07-20T00:29:12.498Z,26.2
2018-07-20T00:30:02.507Z,26.2
2018-07-20T00:30:52.849Z,26.2
2018-07-20T00:31:42.055Z,26.2
2018-07-20T00:32:32.424Z,26.2
2018-07-20T00:33:22.462Z,26.2
2018-07-20T00:34:12.579Z,26.2
2018-07-20T00:35:02.622Z,26.2
2018-07-20T00:35:53.259Z,26.2
2018-07-20T00:36:42.772Z,26.2
2018-07-20T00:37:33.092Z,26.2
2018-07-20T00:38:22.902Z,26.2
2018-07-20T00:39:13.487Z,26.2
2018-07-20T00:40:03.267Z,26.2
2018-07-20T00:40:52.769Z,26.2
2018-07-20T00:41:43.586Z,26.2
2018-07-20T00:42:32.966Z,26.2
2018-07-20T00:43:23.036Z,26.2
2018-07-20T00:44:12.825Z,26.2
2018-07-20T00:45:03.171Z,26.2
2018-07-20T00:45:53.238Z,26.2
2018-07-20T00:46:43.578Z,26.2
2018-07-20T00:47:33.303Z,26.2
2018-07-20T00:48:22.849Z,26.2
2018-07-20T00:49:14.226Z,26.2
2018-07-20T00:50:04.785Z,26.2
2018-07-20T00:50:54.068Z,26.2
2018-07-20T00:51:44.147Z,26.2
2018-07-20T00:52:34.660Z,26.2
2018-07-20T00:53:24.006Z,26.2
2018-07-20T00:54:14.329Z,26.2
2018-07-20T00:55:04.572Z,26.2
2018-07-20T00:55:54.463Z,26.2
2018-07-20T00:56:45.008Z,26.2
2018-07-20T00:57:33.963Z,26.2
2018-07-20T00:58:24.418Z,26.2
2018-07-20T00:59:14.511Z,26.2
2018-07-20T01:00:03.691Z,26.2
2018-07-20T01:00:55.347Z,26.2
2018-07-20T01:01:44.903Z,26.2
2018-07-20T01:02:34.925Z,26.2
2018-07-20T01:03:24.769Z,26.2
2018-07-20T01:04:14.632Z,26.2
2018-07-20T01:05:05.516Z,26.2
2018-07-20T01:05:55.046Z,26.2
2018-07-20T01:06:45.077Z,26.2
2018-07-20T01:07:35.617Z,26.2
2018-07-20T01:08:25.673Z,26.2
2018-07-20T01:09:15.470Z,26.2
2018-07-20T01:10:05.484Z,26.2
2018-07-20T01:10:55.917Z,26.2
2018-07-20T01:11:45.937Z,26.2
2018-07-20T01:12:36.484Z,26.2
2018-07-20T01:13:25.276Z,26.2
2018-07-20T01:14:15.848Z,26.2
2018-07-20T01:15:06.711Z,26.2
2018-07-20T01:15:56.281Z,26.2
2018-07-20T01:16:46.324Z,26.2
2018-07-20T01:17:36.123Z,26.2
2018-07-20T01:18:26.185Z,26.2
2018-07-20T01:19:16.253Z,26.2
2018-07-20T01:20:06.592Z,26.2
2018-07-20T01:20:56.629Z,26.2
2018-07-20T01:21:46.670Z,26.2
2018-07-20T01:22:36.980Z,26.2
2018-07-20T01:23:27.344Z,26.2
2018-07-20T01:24:17.115Z,26.2
2018-07-20T01:25:07.154Z,26.2
2018-07-20T01:25:57.222Z,26.2
2018-07-20T01:26:47.317Z,26.1
2018-07-20T01:27:37.057Z,26.2
2018-07-20T01:28:27.677Z,26.2
2018-07-20T01:29:17.172Z,26.2
2018-07-20T01:30:07.943Z,26.2
2018-07-20T01:30:57.847Z,26.2
2018-07-20T01:31:47.629Z,26.2
2018-07-20T01:32:38.069Z,26.1
2018-07-20T01:33:28.053Z,26.2
2018-07-20T01:34:17.630Z,26.1
2018-07-20T01:35:07.674Z,26.1
2018-07-20T01:35:57.706Z,26.1
2018-07-20T01:36:47.849Z,26.2
2018-07-20T01:37:37.326Z,26.2
2018-07-20T01:38:27.701Z,26.1
2018-07-20T01:39:17.766Z,26.2
2018-07-20T01:40:07.821Z,26.2
2018-07-20T01:40:58.098Z,26.2
2018-07-20T01:41:48.744Z,26.1
2018-07-20T01:42:38.774Z,26.2
2018-07-20T01:43:28.276Z,26.2
2018-07-20T01:44:17.509Z,26.2
2018-07-20T01:45:08.684Z,26.2
2018-07-20T01:45:59.098Z,26.2
2018-07-20T01:46:48.831Z,26.2
2018-07-20T01:47:38.883Z,26.2
2018-07-20T01:48:28.688Z,26.2
2018-07-20T01:49:18.999Z,26.1
2018-07-20T01:50:09.318Z,26.1
2018-07-20T01:50:59.136Z,26.1
2018-07-20T01:51:49.165Z,26.1
2018-07-20T01:52:39.230Z,26.2
2018-07-20T01:53:29.051Z,26.1
2018-07-20T01:54:19.658Z,26.1
2018-07-20T01:55:09.448Z,26.1
2018-07-20T01:55:59.232Z,26.2
2018-07-20T01:56:49.838Z,26.1
2018-07-20T01:57:39.350Z,26.1
2018-07-20T01:58:29.979Z,26.1
2018-07-20T01:59:20.015Z,26.2
2018-07-20T02:00:09.336Z,26.2
2018-07-20T02:00:58.372Z,26.1
2018-07-20T02:01:49.972Z,26.1
2018-07-20T02:02:40.001Z,26.2
2018-07-20T02:03:29.332Z,26.2
2018-07-20T02:04:19.951Z,26.2
2018-07-20T02:05:10.035Z,26.3
2018-07-20T02:06:00.061Z,26.3
2018-07-20T02:06:50.110Z,26.3
2018-07-20T02:07:40.665Z,26.4
2018-07-20T02:08:29.988Z,26.4
2018-07-20T02:09:19.756Z,26.5
2018-07-20T02:10:10.343Z,26.6
2018-07-20T02:11:00.472Z,26.7
2018-07-20T02:11:50.257Z,26.7
2018-07-20T02:12:40.587Z,26.8
2018-07-20T02:13:30.409Z,26.9
2018-07-20T02:14:20.474Z,26.9
2018-07-20T02:15:10.530Z,27
2018-07-20T02:16:00.585Z,27.1
2018-07-20T02:16:50.374Z,27.1
2018-07-20T02:17:40.117Z,27.3
2018-07-20T02:18:30.253Z,27.3
2018-07-20T02:19:20.779Z,27.3
2018-07-20T02:20:11.676Z,27.4
2018-07-20T02:21:00.868Z,27.5
2018-07-20T02:21:51.228Z,27.6
2018-07-20T02:22:41.037Z,27.6
2018-07-20T02:23:31.940Z,27.7
2018-07-20T02:24:21.675Z,27.8
2018-07-20T02:26:02.132Z,27.9
2018-07-20T02:26:52.187Z,27.9
2018-07-20T02:27:41.914Z,28
2018-07-20T02:28:31.957Z,28.1
2018-07-20T02:29:22.208Z,28.2
2018-07-20T02:30:12.450Z,28.3
2018-07-20T02:31:02.515Z,28.3
2018-07-20T02:31:52.030Z,28.4
2018-07-20T02:32:42.095Z,28.5
2018-07-20T02:33:31.567Z,28.6
2018-07-20T02:34:21.911Z,28.6
2018-07-20T02:35:12.247Z,28.7
2018-07-20T02:36:02.315Z,28.8
2018-07-20T02:36:52.338Z,28.9
2018-07-20T02:37:42.400Z,28.9
2018-07-20T02:38:33.015Z,29
2018-07-20T02:39:23.149Z,29.1
2018-07-20T02:40:13.178Z,29.2
2018-07-20T02:41:02.419Z,29.3
2018-07-20T02:41:51.962Z,29.4
2018-07-20T02:42:42.662Z,29.4
2018-07-20T02:43:32.640Z,29.6
2018-07-20T02:44:22.751Z,29.6
2018-07-20T02:45:12.869Z,29.7
2018-07-20T02:46:03.144Z,29.8
2018-07-20T02:46:52.649Z,29.9
2018-07-20T02:47:42.709Z,29.9
2018-07-20T02:48:32.211Z,30.1
2018-07-20T02:49:22.870Z,30.2
2018-07-20T02:50:13.488Z,30.3
2018-07-20T02:51:03.719Z,30.3
2018-07-20T02:51:53.251Z,30.4
2018-07-20T02:52:43.851Z,30.4
2018-07-20T02:53:33.921Z,30.6
2018-07-20T02:54:24.266Z,30.7
2018-07-20T02:55:14.057Z,30.8
2018-07-20T02:56:03.560Z,30.8
2018-07-20T02:56:53.407Z,30.9
2018-07-20T02:57:44.266Z,31
2018-07-20T02:58:33.559Z,31.1
2018-07-20T02:59:23.715Z,31.2
2018-07-20T03:00:13.722Z,31.3
2018-07-20T03:01:04.295Z,31.4
2018-07-20T03:01:53.833Z,31.4
2018-07-20T03:02:43.880Z,31.5
2018-07-20T03:03:33.379Z,31.6
2018-07-20T03:04:23.987Z,31.7
2018-07-20T03:05:14.313Z,31.8
2018-07-20T03:06:04.660Z,31.9
2018-07-20T03:06:53.872Z,31.9
2018-07-20T03:07:44.235Z,32.1
2018-07-20T03:08:35.309Z,32.1
2018-07-20T03:09:24.373Z,32.2
2018-07-20T03:10:14.347Z,32.3
2018-07-20T03:11:05.272Z,32.4
2018-07-20T03:11:54.284Z,32.4
2018-07-20T03:12:45.380Z,32.6
2018-07-20T03:13:35.736Z,32.6
2018-07-20T03:14:25.257Z,32.7
2018-07-20T03:15:15.407Z,32.8
2018-07-20T03:16:04.807Z,32.9
2018-07-20T03:16:55.713Z,32.9
2018-07-20T03:17:46.051Z,33.1
2018-07-20T03:18:35.796Z,33.1
2018-07-20T03:19:25.895Z,33.2
2018-07-20T03:20:15.943Z,33.3
2018-07-20T03:21:06.662Z,33.3
2018-07-20T03:21:55.803Z,33.4
2018-07-20T03:22:45.321Z,33.6
2018-07-20T03:23:36.491Z,33.6
2018-07-20T03:24:26.561Z,33.6
2018-07-20T03:25:31.455Z,33.8
2018-07-20T03:26:05.737Z,33.8
2018-07-20T03:26:55.404Z,33.9
2018-07-20T03:27:46.310Z,33.9
2018-07-20T03:28:36.078Z,34
2018-07-20T03:29:26.683Z,34.1
2018-07-20T03:30:16.447Z,34.2
2018-07-20T03:31:05.988Z,34.3
2018-07-20T03:31:57.129Z,34.3
2018-07-20T03:32:47.080Z,34.4
2018-07-20T03:33:36.741Z,34.4
2018-07-20T03:34:26.799Z,34.4
2018-07-20T03:35:17.105Z,34.5
2018-07-20T03:36:07.141Z,34.6
2018-07-20T03:36:56.401Z,34.6
2018-07-20T03:37:46.537Z,34.6
2018-07-20T03:38:36.553Z,34.6
2018-07-20T03:39:27.370Z,34.7
2018-07-20T03:40:16.929Z,34.7
2018-07-20T03:41:06.705Z,34.8
2018-07-20T03:41:56.548Z,34.8
2018-07-20T03:42:47.175Z,34.8
2018-07-20T03:43:37.213Z,34.8
2018-07-20T03:44:27.002Z,34.9
2018-07-20T03:45:17.654Z,34.9
2018-07-20T03:46:07.457Z,34.9
2018-07-20T03:46:57.798Z,34.9
2018-07-20T03:47:47.585Z,34.9
2018-07-20T03:48:38.133Z,35
2018-07-20T03:49:26.280Z,35
2018-07-20T03:50:18.222Z,35
2018-07-20T03:51:08.069Z,35
2018-07-20T03:51:58.092Z,35
2018-07-20T03:52:47.886Z,35.1
2018-07-20T03:53:38.543Z,35.1
2018-07-20T03:54:28.639Z,35.1
2018-07-20T03:55:18.952Z,35.1
2018-07-20T03:56:08.419Z,35.1
2018-07-20T03:56:58.433Z,35.1
2018-07-20T03:57:49.065Z,35.1
2018-07-20T03:58:38.853Z,35.2
2018-07-20T03:59:29.269Z,35.2
2018-07-20T04:00:19.262Z,35.2
2018-07-20T04:01:09.107Z,35.2
2018-07-20T04:01:59.261Z,35.3
2018-07-20T04:02:48.877Z,35.3
2018-07-20T04:03:39.553Z,35.2
2018-07-20T04:04:29.331Z,35.3
2018-07-20T04:05:19.629Z,35.3
2018-07-20T04:06:09.453Z,35.3
2018-07-20T04:06:59.498Z,35.3
2018-07-20T04:07:49.907Z,35.3
2018-07-20T04:08:39.920Z,35.3
2018-07-20T04:09:29.678Z,35.4
2018-07-20T04:10:20.619Z,35.3
2018-07-20T04:11:10.106Z,35.3
2018-07-20T04:12:00.141Z,35.3
2018-07-20T04:12:49.928Z,35.4
2018-07-20T04:13:39.963Z,35.4
2018-07-20T04:14:30.335Z,35.4
2018-07-20T04:15:20.106Z,35.4
2018-07-20T04:16:10.529Z,35.4
2018-07-20T04:17:00.490Z,35.4
2018-07-20T04:17:50.068Z,35.4
2018-07-20T04:18:40.121Z,35.4
2018-07-20T04:19:30.722Z,35.4
2018-07-20T04:20:20.777Z,35.4
2018-07-20T04:21:10.889Z,35.4
2018-07-20T04:22:00.385Z,35.4
2018-07-20T04:22:50.734Z,35.4
2018-07-20T04:23:40.772Z,35.5
2018-07-20T04:24:31.087Z,35.5
2018-07-20T04:25:21.176Z,35.4
2018-07-20T04:26:10.199Z,35.5
2018-07-20T04:27:00.745Z,35.5
2018-07-20T04:27:50.241Z,35.5
2018-07-20T04:28:40.585Z,35.5
2018-07-20T04:29:31.261Z,35.5
2018-07-20T04:30:21.263Z,35.5
2018-07-20T04:31:11.677Z,35.5
2018-07-20T04:32:01.088Z,35.5
2018-07-20T04:32:51.762Z,35.5
2018-07-20T04:33:41.778Z,35.5
2018-07-20T04:34:31.351Z,35.5
2018-07-20T04:35:21.935Z,35.5
2018-07-20T04:36:11.680Z,35.6
2018-07-20T04:37:02.076Z,35.6
2018-07-20T04:37:51.803Z,35.6
2018-07-20T04:38:41.863Z,35.5
2018-07-20T04:39:31.942Z,35.6
2018-07-20T04:40:22.006Z,35.6
2018-07-20T04:41:11.252Z,35.5
2018-07-20T04:42:02.398Z,35.6
2018-07-20T04:42:52.445Z,35.5
2018-07-20T04:43:42.310Z,35.6
2018-07-20T04:44:32.580Z,35.5
2018-07-20T04:45:21.858Z,35.6
2018-07-20T04:46:12.490Z,35.6
2018-07-20T04:47:02.781Z,35.6
2018-07-20T04:47:52.579Z,35.6
2018-07-20T04:48:42.941Z,35.6
2018-07-20T04:49:32.438Z,35.6
2018-07-20T04:50:23.031Z,35.6
2018-07-20T04:51:12.847Z,35.6
2018-07-20T04:52:01.791Z,35.6
2018-07-20T04:52:52.999Z,35.6
2018-07-20T04:53:42.503Z,35.6
2018-07-20T04:54:33.135Z,35.6
2018-07-20T04:55:22.602Z,35.6
2018-07-20T04:56:13.272Z,35.6
2018-07-20T04:57:01.973Z,35.6
2018-07-20T04:57:52.797Z,35.6
2018-07-20T04:58:42.810Z,35.6
2018-07-20T04:59:33.487Z,35.6
2018-07-20T05:00:23.569Z,35.6
2018-07-20T05:01:13.933Z,35.6
2018-07-20T05:02:03.699Z,35.6
2018-07-20T05:02:53.462Z,35.6
2018-07-20T05:03:44.013Z,35.6
2018-07-20T05:04:33.865Z,35.6
2018-07-20T05:05:23.653Z,35.6
2018-07-20T05:06:14.316Z,35.6
2018-07-20T05:07:04.403Z,35.6
2018-07-20T05:07:54.119Z,35.6
2018-07-20T05:08:44.599Z,35.6
2018-07-20T05:09:34.239Z,35.6
2018-07-20T05:10:24.312Z,35.6
2018-07-20T05:11:14.343Z,35.6
2018-07-20T05:12:04.724Z,35.6
2018-07-20T05:12:54.478Z,35.6
2018-07-20T05:13:44.865Z,35.6
2018-07-20T05:14:34.886Z,35.6
2018-07-20T05:15:24.417Z,35.6
2018-07-20T05:16:15.003Z,35.6
2018-07-20T05:17:05.081Z,35.6
2018-07-20T05:17:55.175Z,35.6
2018-07-20T05:18:44.386Z,35.6
2018-07-20T05:19:34.232Z,35.6
2018-07-20T05:20:24.615Z,35.6
2018-07-20T05:21:15.429Z,35.6
2018-07-20T05:22:05.147Z,35.6
2018-07-20T05:22:54.957Z,35.6
2018-07-20T05:23:45.348Z,35.6
2018-07-20T05:24:35.362Z,35.6
2018-07-20T05:25:25.450Z,35.6
2018-07-20T05:26:15.238Z,35.6
2018-07-20T05:27:05.854Z,35.6
2018-07-20T05:27:55.951Z,35.6
2018-07-20T05:28:45.145Z,35.6
2018-07-20T05:29:36.069Z,35.6
2018-07-20T05:30:25.526Z,35.6
2018-07-20T05:31:16.256Z,35.6
2018-07-20T05:32:05.978Z,35.6
2018-07-20T05:32:55.823Z,35.5
2018-07-20T05:33:46.323Z,35.5
2018-07-20T05:34:35.958Z,35.4
2018-07-20T05:35:25.684Z,35.4
2018-07-20T05:36:15.993Z,35.4
2018-07-20T05:37:06.333Z,35.5
2018-07-20T05:37:56.376Z,35.5
2018-07-20T05:38:46.731Z,35.5
2018-07-20T05:39:36.521Z,35.6
2018-07-20T05:40:26.942Z,35.5
2018-07-20T05:41:16.363Z,35.5
2018-07-20T05:42:06.733Z,35.6
2018-07-20T05:42:56.783Z,35.6
2018-07-20T05:43:46.299Z,35.6
2018-07-20T05:44:36.388Z,35.6
2018-07-20T05:45:26.749Z,35.6
2018-07-20T05:46:16.590Z,35.6
2018-07-20T05:47:07.351Z,35.6
2018-07-20T05:47:56.604Z,35.6
2018-07-20T05:48:47.277Z,35.6
2018-07-20T05:49:37.279Z,35.6
2018-07-20T05:50:26.828Z,35.5
2018-07-20T05:51:17.125Z,35.6
2018-07-20T05:52:07.768Z,35.5
2018-07-20T05:52:57.570Z,35.6
2018-07-20T05:53:47.304Z,35.5
2018-07-20T05:54:37.916Z,35.5
2018-07-20T05:55:27.713Z,35.5
2018-07-20T05:56:17.490Z,35.5
2018-07-20T05:57:07.847Z,35.6
2018-07-20T05:57:57.919Z,35.5
2018-07-20T05:58:48.263Z,35.6
2018-07-20T05:59:38.024Z,35.6
2018-07-20T06:00:28.115Z,35.5
2018-07-20T06:01:17.927Z,35.5
2018-07-20T06:02:08.482Z,35.5
2018-07-20T06:02:58.339Z,35.5
2018-07-20T06:03:48.377Z,35.5
2018-07-20T06:04:38.275Z,35.5
2018-07-20T06:05:29.220Z,35.5
2018-07-20T06:06:18.569Z,35.5
2018-07-20T06:07:08.388Z,35.4
2018-07-20T06:07:58.736Z,35.4
2018-07-20T06:08:48.519Z,35.4
2018-07-20T06:09:38.281Z,35.4
2018-07-20T06:10:28.643Z,35.4
2018-07-20T06:11:18.198Z,35.4
2018-07-20T06:12:09.032Z,35.4
2018-07-20T06:12:59.344Z,35.4
2018-07-20T06:13:48.616Z,35.4
2018-07-20T06:14:39.191Z,35.4
2018-07-20T06:15:29.268Z,35.4
2018-07-20T06:16:19.613Z,35.4
2018-07-20T06:17:09.427Z,35.4
2018-07-20T06:17:59.184Z,35.4
2018-07-20T06:18:49.244Z,35.4
2018-07-20T06:19:38.723Z,35.4
2018-07-20T06:20:29.993Z,35.4
2018-07-20T06:21:19.962Z,35.4
2018-07-20T06:22:09.910Z,35.4
2018-07-20T06:22:59.880Z,35.4
2018-07-20T06:23:50.467Z,35.4
2018-07-20T06:24:40.225Z,35.4
2018-07-20T06:25:30.300Z,35.4
2018-07-20T06:26:19.578Z,35.4
2018-07-20T06:27:10.437Z,35.4
2018-07-20T06:28:00.503Z,35.4
2018-07-20T06:28:49.718Z,35.4
2018-07-20T06:29:41.459Z,35.4
2018-07-20T06:30:30.723Z,35.4
2018-07-20T06:31:20.743Z,35.4
2018-07-20T06:32:10.802Z,35.4
2018-07-20T06:32:59.904Z,35.4
2018-07-20T06:33:50.359Z,35.4
2018-07-20T06:34:40.223Z,35.3
2018-07-20T06:35:30.026Z,35.3
2018-07-20T06:36:20.370Z,35.3
2018-07-20T06:37:10.447Z,35.3
2018-07-20T06:37:59.672Z,35.3
2018-07-20T06:38:50.567Z,35.3
2018-07-20T06:39:40.924Z,35.3
2018-07-20T06:40:30.954Z,35.3
2018-07-20T06:41:20.739Z,35.3
2018-07-20T06:42:10.585Z,35.3
2018-07-20T06:43:01.645Z,35.3
2018-07-20T06:43:51.002Z,35.3
2018-07-20T06:44:41.366Z,35.3
2018-07-20T06:45:31.085Z,35.3
2018-07-20T06:46:21.623Z,35.3
2018-07-20T06:47:11.129Z,35.3
2018-07-20T06:48:01.194Z,35.3
2018-07-20T06:48:51.533Z,35.3
2018-07-20T06:49:41.949Z,35.3
2018-07-20T06:50:31.944Z,35.3
2018-07-20T06:51:22.077Z,35.3
2018-07-20T06:52:12.085Z,35.3
2018-07-20T06:53:02.167Z,35.2
2018-07-20T06:53:52.523Z,35.3
2018-07-20T06:54:42.002Z,35.3
2018-07-20T06:55:32.324Z,35.2
2018-07-20T06:56:21.567Z,35.2
2018-07-20T06:57:12.495Z,35.3
2018-07-20T06:58:02.771Z,35.2
2018-07-20T06:58:52.936Z,35.2
2018-07-20T06:59:42.363Z,35.2
2018-07-20T07:00:31.859Z,35.2
2018-07-20T07:01:23.053Z,35.2
2018-07-20T07:02:12.843Z,35.2
2018-07-20T07:03:02.619Z,35.2
2018-07-20T07:03:52.972Z,35.2
2018-07-20T07:04:43.280Z,35.2
2018-07-20T07:05:32.794Z,35.2
2018-07-20T07:06:22.906Z,35.1
2018-07-20T07:07:12.948Z,35.1
2018-07-20T07:08:03.342Z,35.2
2018-07-20T07:08:53.083Z,35.2
2018-07-20T07:09:43.490Z,35.1
2018-07-20T07:10:33.773Z,35.1
2018-07-20T07:11:22.515Z,35.1
2018-07-20T07:12:13.303Z,35.1
2018-07-20T07:13:03.142Z,35.1
2018-07-20T07:13:53.726Z,35.1
2018-07-20T07:14:43.252Z,35.1
2018-07-20T07:15:33.894Z,35.1
2018-07-20T07:16:23.222Z,35.1
2018-07-20T07:17:14.289Z,35.1
2018-07-20T07:18:03.784Z,35.1
2018-07-20T07:18:54.194Z,35.1
2018-07-20T07:19:44.192Z,35.1
2018-07-20T07:20:34.251Z,35.1
2018-07-20T07:21:24.064Z,35.1
2018-07-20T07:22:14.789Z,35.1
2018-07-20T07:23:04.444Z,35.1
2018-07-20T07:23:54.815Z,35.1
2018-07-20T07:24:44.564Z,35.1
2018-07-20T07:25:34.045Z,35.1
2018-07-20T07:26:24.749Z,35.1
2018-07-20T07:27:14.491Z,35.1
2018-07-20T07:28:04.543Z,35.1
2018-07-20T07:28:54.597Z,35.1
2018-07-20T07:29:44.992Z,35.1
2018-07-20T07:30:34.717Z,35
2018-07-20T07:31:25.099Z,35.1
2018-07-20T07:32:15.157Z,35
2018-07-20T07:33:05.494Z,35
2018-07-20T07:33:55.236Z,35
2018-07-20T07:34:45.054Z,35
2018-07-20T07:35:35.394Z,35
2018-07-20T07:36:25.721Z,35
2018-07-20T07:37:15.785Z,35
2018-07-20T07:38:05.301Z,35
2018-07-20T07:38:55.666Z,35
2018-07-20T07:39:45.715Z,34.9
2018-07-20T07:40:35.762Z,35
2018-07-20T07:41:25.297Z,34.9
2018-07-20T07:42:16.939Z,35
2018-07-20T07:43:05.945Z,34.9
2018-07-20T07:43:55.751Z,34.9
2018-07-20T07:44:46.082Z,34.9
2018-07-20T07:45:36.125Z,34.9
2018-07-20T07:46:25.958Z,34.9
2018-07-20T07:47:16.572Z,34.9
2018-07-20T07:48:06.334Z,34.9
2018-07-20T07:48:56.346Z,34.9
2018-07-20T07:49:46.732Z,34.9
2018-07-20T07:50:36.515Z,34.8
2018-07-20T07:51:26.658Z,34.8
2018-07-20T07:52:16.927Z,34.8
2018-07-20T07:53:05.889Z,34.8
2018-07-20T07:53:56.527Z,34.8
2018-07-20T07:54:46.861Z,34.8
2018-07-20T07:55:37.253Z,34.8
2018-07-20T07:56:26.424Z,34.8
2018-07-20T07:57:17.346Z,34.8
2018-07-20T07:58:06.866Z,34.8
2018-07-20T07:58:57.234Z,34.7
2018-07-20T07:59:47.015Z,34.7
2018-07-20T08:00:37.083Z,34.7
2018-07-20T08:01:26.856Z,34.7
2018-07-20T08:02:17.199Z,34.6
2018-07-20T08:03:07.548Z,34.6
2018-07-20T08:03:57.040Z,34.6
2018-07-20T08:04:47.154Z,34.6
2018-07-20T08:05:37.444Z,34.6
2018-07-20T08:06:27.244Z,34.6
2018-07-20T08:07:17.285Z,34.6
2018-07-20T08:08:06.864Z,34.6
2018-07-20T08:08:56.994Z,34.6
2018-07-20T08:09:48.585Z,34.6
2018-07-20T08:10:37.294Z,34.6
2018-07-20T08:11:27.760Z,34.6
2018-07-20T08:12:17.626Z,34.5
2018-07-20T08:13:07.971Z,34.6
2018-07-20T08:13:57.847Z,34.6
2018-07-20T08:14:48.648Z,34.5
2018-07-20T08:15:37.927Z,34.6
2018-07-20T08:16:28.276Z,34.5
2018-07-20T08:17:19.009Z,34.5
2018-07-20T08:18:08.092Z,34.5
2018-07-20T08:18:58.154Z,34.5
2018-07-20T08:19:48.783Z,34.5
2018-07-20T08:20:38.578Z,34.5
2018-07-20T08:21:28.533Z,34.5
2018-07-20T08:22:19.270Z,34.5
2018-07-20T08:23:08.863Z,34.5
2018-07-20T08:23:59.372Z,34.5
2018-07-20T08:24:49.154Z,34.5
2018-07-20T08:25:39.173Z,34.4
2018-07-20T08:26:29.290Z,34.5
2018-07-20T08:27:19.298Z,34.4
2018-07-20T08:28:09.465Z,34.5
2018-07-20T08:28:59.672Z,34.5
2018-07-20T08:29:49.499Z,34.4
2018-07-20T08:30:39.844Z,34.4
2018-07-20T08:31:29.382Z,34.4
2018-07-20T08:32:19.962Z,34.4
2018-07-20T08:33:09.587Z,34.4
2018-07-20T08:34:00.083Z,34.4
2018-07-20T08:34:49.327Z,34.4
2018-07-20T08:35:40.004Z,34.4
2018-07-20T08:36:29.472Z,34.4
2018-07-20T08:37:20.084Z,34.4
2018-07-20T08:38:10.270Z,34.4
2018-07-20T08:39:00.097Z,34.4
2018-07-20T08:39:49.987Z,34.4
2018-07-20T08:40:40.385Z,34.4
2018-07-20T08:41:30.430Z,34.4
2018-07-20T08:42:20.501Z,34.4
2018-07-20T08:43:10.807Z,34.4
2018-07-20T08:44:00.575Z,34.4
2018-07-20T08:44:50.672Z,34.4
2018-07-20T08:45:41.033Z,34.4
2018-07-20T08:46:30.281Z,34.4
2018-07-20T08:47:21.159Z,34.4
2018-07-20T08:48:10.953Z,34.4
2018-07-20T08:49:00.991Z,34.4
2018-07-20T08:49:51.358Z,34.4
2018-07-20T08:50:41.125Z,34.4
2018-07-20T08:51:30.905Z,34.4
2018-07-20T08:52:20.984Z,34.4
2018-07-20T08:53:11.328Z,34.4
2018-07-20T08:54:02.190Z,34.4
2018-07-20T08:54:51.488Z,34.4
2018-07-20T08:55:40.942Z,34.4
2018-07-20T08:56:31.568Z,34.4
2018-07-20T08:57:21.412Z,34.4
2018-07-20T08:58:11.493Z,34.4
2018-07-20T08:59:02.209Z,34.4
2018-07-20T08:59:51.657Z,34.4
2018-07-20T09:00:42.180Z,34.4
2018-07-20T09:01:31.698Z,34.5
2018-07-20T09:02:22.554Z,34.4
2018-07-20T09:03:12.477Z,34.4
2018-07-20T09:04:01.874Z,34.4
2018-07-20T09:04:52.503Z,34.5
2018-07-20T09:05:41.964Z,34.4
2018-07-20T09:06:32.097Z,39.6
2018-07-20T09:07:22.162Z,41.1
2018-07-20T09:08:12.701Z,45.3
2018-07-20T09:09:02.329Z,49.9
2018-07-20T09:09:52.557Z,52.1
2018-07-20T09:10:42.617Z,53
2018-07-20T09:11:32.267Z,53.2
2018-07-20T09:12:22.777Z,53
2018-07-20T09:13:12.555Z,52.6
2018-07-20T09:14:02.463Z,52.1
2018-07-20T09:14:52.977Z,51.6
2018-07-20T09:15:42.785Z,51.1
2018-07-20T09:16:33.141Z,50.6
2018-07-20T09:17:23.119Z,50.1
2018-07-20T09:18:13.262Z,49.6
2018-07-20T09:19:03.321Z,49.2
2018-07-20T09:19:53.466Z,48.8
2018-07-20T09:20:45.273Z,48.4
2018-07-20T09:21:33.513Z,48
2018-07-20T09:22:23.332Z,47.6
2018-07-20T09:23:13.938Z,47.3
2018-07-20T09:24:03.687Z,46.9
2018-07-20T09:24:53.856Z,46.6
2018-07-20T09:25:43.305Z,46.3
2018-07-20T09:26:34.169Z,46
2018-07-20T09:27:24.237Z,45.8
2018-07-20T09:28:14.249Z,45.4
2018-07-20T09:29:03.234Z,45.2
2018-07-20T09:29:54.406Z,44.9
2018-07-20T09:30:43.464Z,44.7
2018-07-20T09:31:34.252Z,44.4
2018-07-20T09:32:24.653Z,44.2
2018-07-20T09:33:14.703Z,43.9
2018-07-20T09:34:04.994Z,43.7
2018-07-20T09:34:54.806Z,43.5
2018-07-20T09:35:44.864Z,43.3
2018-07-20T09:36:34.414Z,43.1
2018-07-20T09:37:24.708Z,42.9
2018-07-20T09:38:14.478Z,42.7
2018-07-20T09:39:04.881Z,42.5
2018-07-20T09:39:54.954Z,42.3
2018-07-20T09:40:45.228Z,42.1
2018-07-20T09:41:35.005Z,42
2018-07-20T09:42:24.802Z,41.8
2018-07-20T09:43:15.433Z,41.7
2018-07-20T09:44:05.776Z,41.6
2018-07-20T09:44:55.574Z,41.4
2018-07-20T09:45:45.636Z,41.3
2018-07-20T09:46:35.685Z,41.1
2018-07-20T09:47:25.468Z,40.9
2018-07-20T09:48:15.817Z,40.8
2018-07-20T09:49:07.236Z,40.7
2018-07-20T09:49:55.764Z,40.6
2018-07-20T09:50:45.984Z,40.5
2018-07-20T09:51:35.542Z,40.4
2018-07-20T09:52:26.114Z,40.3
2018-07-20T09:53:15.909Z,40.1
2018-07-20T09:54:05.431Z,40.1
2018-07-20T09:54:56.035Z,39.9
2018-07-20T09:55:46.130Z,39.9
2018-07-20T09:56:36.472Z,39.8
2018-07-20T09:57:25.979Z,39.7
2018-07-20T09:58:15.834Z,39.6
2018-07-20T09:59:06.372Z,39.5
2018-07-20T09:59:57.291Z,39.4
2018-07-20T10:00:45.959Z,39.4
2018-07-20T10:01:36.063Z,39.3
2018-07-20T10:02:26.919Z,39.2
2018-07-20T10:03:16.734Z,39.1
2018-07-20T10:04:06.494Z,39.1
2018-07-20T10:04:57.143Z,39
2018-07-20T10:05:47.174Z,38.9
2018-07-20T10:06:36.671Z,38.9
2018-07-20T10:07:27.031Z,38.8
2018-07-20T10:08:17.423Z,38.7
2018-07-20T10:09:07.177Z,38.6
2018-07-20T10:09:56.845Z,38.6
2018-07-20T10:10:47.539Z,38.5
2018-07-20T10:11:37.118Z,38.4
2018-07-20T10:12:27.702Z,38.4
2018-07-20T10:13:17.742Z,38.3
2018-07-20T10:14:07.505Z,38.3
2018-07-20T10:14:57.949Z,38.2
2018-07-20T10:15:47.701Z,38.1
2018-07-20T10:16:37.955Z,38.1
2018-07-20T10:17:28.061Z,38
2018-07-20T10:18:17.863Z,37.9
2018-07-20T10:19:09.197Z,37.9
2018-07-20T10:19:57.726Z,37.8
2018-07-20T10:20:48.346Z,37.8
2018-07-20T10:21:38.363Z,37.7
2018-07-20T10:22:28.410Z,37.6
2018-07-20T10:23:17.943Z,37.5
2018-07-20T10:24:08.280Z,37.4
2018-07-20T10:24:58.150Z,41.8
2018-07-20T10:25:49.497Z,44.1
2018-07-20T10:26:38.447Z,48.5
2018-07-20T10:27:28.830Z,51.6
2018-07-20T10:28:18.894Z,52.9
2018-07-20T10:29:08.937Z,53.4
2018-07-20T10:29:58.534Z,53.3
2018-07-20T10:30:49.213Z,53.1
2018-07-20T10:31:39.117Z,52.5
2018-07-20T10:33:19.021Z,51.3
2018-07-20T10:34:08.770Z,50.7
2018-07-20T10:34:59.394Z,50.1
2018-07-20T10:35:48.974Z,49.6
2018-07-20T10:36:38.833Z,49
2018-07-20T10:37:29.644Z,48.6
2018-07-20T10:38:19.408Z,48.1
2018-07-20T10:39:09.734Z,47.7
2018-07-20T10:39:59.789Z,47.3
2018-07-20T10:40:49.934Z,46.9
2018-07-20T10:41:39.644Z,46.6
2018-07-20T10:42:29.420Z,46.3
2018-07-20T10:43:20.432Z,45.9
2018-07-20T10:44:10.152Z,45.6
2018-07-20T10:45:00.159Z,45.3
2018-07-20T10:45:50.241Z,45.1
2018-07-20T10:46:39.239Z,44.8
2018-07-20T10:47:29.551Z,44.6
2018-07-20T10:48:20.213Z,44.3
2018-07-20T10:49:10.253Z,44.1
2018-07-20T10:50:00.051Z,43.8
2018-07-20T10:50:49.922Z,43.6
2018-07-20T10:51:40.142Z,43.4
2018-07-20T10:52:30.494Z,43.2
2018-07-20T10:53:20.252Z,42.9
2018-07-20T10:54:10.915Z,42.8
2018-07-20T10:55:00.446Z,42.6
2018-07-20T10:55:50.491Z,42.4
2018-07-20T10:56:40.516Z,42.2
2018-07-20T10:57:31.154Z,42
2018-07-20T10:58:21.178Z,41.8
2018-07-20T10:59:10.773Z,41.6
2018-07-20T11:00:00.507Z,41.5
2018-07-20T11:00:50.567Z,41.3
2018-07-20T11:01:42.447Z,41.1
2018-07-20T11:02:31.501Z,40.9
2018-07-20T11:03:20.755Z,40.8
2018-07-20T11:04:11.641Z,40.7
2018-07-20T11:05:01.141Z,40.6
2018-07-20T11:05:51.563Z,40.4
2018-07-20T11:06:41.573Z,40.3
2018-07-20T11:07:31.628Z,40.1
2018-07-20T11:08:21.989Z,39.9
2018-07-20T11:09:11.998Z,39.8